New Smithville, Pennsylvania
Current Conditions -  °F | °C
As of 6:54 PM on Monday 20 Oct 2014 (Local Time) from KRDG Reporting Station
Clear Clear  
Wind Chill: 57°   Ceiling: Unl
Heat Index: 57°   Visibility: 10mi
Dew Point: 42°   Wind: 5mph
Humidity: 57%   Direction: 170°S
Pressure: 29.95"   Gusts: NA
Location:  40.5336°N, 75.7775°W
Report Text: KRDG 202254Z AUTO 17004KT 10SM CLR 14/06 A2995 RMK AO2 SLP147 T01390056
Loading
Personal Weather Stations






























Interactive Weather Map
Tropical Storm Tracking
New forecast layout! Learn more

10-Day Weather Forecast

Advertisements
Track Severe Weather on mobile